sensor_id;sensor_type;location;lat;lon;timestamp;temperature;humidity
10249;DHT22;5169;50.560;9.714;2023-03-19T00:00:30;11.30;99.90
10249;DHT22;5169;50.560;9.714;2023-03-19T00:02:59;11.30;99.90
10249;DHT22;5169;50.560;9.714;2023-03-19T00:05:25;11.30;99.90
10249;DHT22;5169;50.560;9.714;2023-03-19T00:07:53;11.30;99.90
10249;DHT22;5169;50.560;9.714;2023-03-19T00:10:18;11.30;99.90
10249;DHT22;5169;50.560;9.714;2023-03-19T00:12:44;11.50;99.90
10249;DHT22;5169;50.560;9.714;2023-03-19T00:15:11;11.70;99.90
10249;DHT22;5169;50.560;9.714;2023-03-19T00:17:42;11.90;99.90
10249;DHT22;5169;50.560;9.714;2023-03-19T00:20:09;11.70;99.90
10249;DHT22;5169;50.560;9.714;2023-03-19T00:22:35;11.40;99.90
10249;DHT22;5169;50.560;9.714;2023-03-19T00:25:03;11.50;99.90
10249;DHT22;5169;50.560;9.714;2023-03-19T00:27:29;11.50;99.90
10249;DHT22;5169;50.560;9.714;2023-03-19T00:29:55;11.50;99.90
10249;DHT22;5169;50.560;9.714;2023-03-19T00:32:21;11.60;99.90
10249;DHT22;5169;50.560;9.714;2023-03-19T00:34:46;11.60;99.90
10249;DHT22;5169;50.560;9.714;2023-03-19T00:37:12;11.70;99.90
10249;DHT22;5169;50.560;9.714;2023-03-19T00:39:38;11.60;99.90
10249;DHT22;5169;50.560;9.714;2023-03-19T00:42:08;11.50;99.90
10249;DHT22;5169;50.560;9.714;2023-03-19T00:44:34;11.40;99.90
10249;DHT22;5169;50.560;9.714;2023-03-19T00:47:00;11.50;99.90
10249;DHT22;5169;50.560;9.714;2023-03-19T00:49:30;11.30;99.90
10249;DHT22;5169;50.560;9.714;2023-03-19T00:51:57;11.10;99.90
10249;DHT22;5169;50.560;9.714;2023-03-19T00:54:23;11.00;99.90
10249;DHT22;5169;50.560;9.714;2023-03-19T00:56:49;10.80;99.90
10249;DHT22;5169;50.560;9.714;2023-03-19T00:59:17;10.70;99.90
10249;DHT22;5169;50.560;9.714;2023-03-19T01:01:43;10.70;99.90
10249;DHT22;5169;50.560;9.714;2023-03-19T01:04:08;10.60;99.90
10249;DHT22;5169;50.560;9.714;2023-03-19T01:06:35;10.70;99.90
10249;DHT22;5169;50.560;9.714;2023-03-19T01:09:03;10.80;99.90
10249;DHT22;5169;50.560;9.714;2023-03-19T01:11:29;10.60;99.90
10249;DHT22;5169;50.560;9.714;2023-03-19T01:13:54;10.60;99.90
10249;DHT22;5169;50.560;9.714;2023-03-19T01:16:20;10.60;99.90
10249;DHT22;5169;50.560;9.714;2023-03-19T01:18:46;10.40;99.90
10249;DHT22;5169;50.560;9.714;2023-03-19T01:21:12;10.30;99.90
10249;DHT22;5169;50.560;9.714;2023-03-19T01:23:38;10.40;99.90
10249;DHT22;5169;50.560;9.714;2023-03-19T01:26:06;10.40;99.90
10249;DHT22;5169;50.560;9.714;2023-03-19T01:28:34;10.40;99.90
10249;DHT22;5169;50.560;9.714;2023-03-19T01:31:00;10.50;99.90
10249;DHT22;5169;50.560;9.714;2023-03-19T01:33:26;10.70;99.90
10249;DHT22;5169;50.560;9.714;2023-03-19T01:35:52;10.90;99.90
10249;DHT22;5169;50.560;9.714;2023-03-19T01:38:18;10.70;99.90
10249;DHT22;5169;50.560;9.714;2023-03-19T01:40:47;10.60;99.90
10249;DHT22;5169;50.560;9.714;2023-03-19T01:43:21;10.70;99.90
10249;DHT22;5169;50.560;9.714;2023-03-19T01:45:57;10.70;99.90
10249;DHT22;5169;50.560;9.714;2023-03-19T01:48:27;10.70;99.90
10249;DHT22;5169;50.560;9.714;2023-03-19T01:50:55;10.70;99.90
10249;DHT22;5169;50.560;9.714;2023-03-19T01:53:28;10.50;99.90
10249;DHT22;5169;50.560;9.714;2023-03-19T01:56:00;10.60;99.90
10249;DHT22;5169;50.560;9.714;2023-03-19T01:58:28;10.60;99.90
10249;DHT22;5169;50.560;9.714;2023-03-19T02:00:54;10.50;99.90
10249;DHT22;5169;50.560;9.714;2023-03-19T02:03:21;10.40;99.90
10249;DHT22;5169;50.560;9.714;2023-03-19T02:05:49;10.30;99.90
10249;DHT22;5169;50.560;9.714;2023-03-19T02:08:20;10.10;99.90
10249;DHT22;5169;50.560;9.714;2023-03-19T02:10:47;10.10;99.90
10249;DHT22;5169;50.560;9.714;2023-03-19T02:13:13;10.20;99.90
10249;DHT22;5169;50.560;9.714;2023-03-19T02:15:40;10.20;99.90
10249;DHT22;5169;50.560;9.714;2023-03-19T02:18:09;10.40;99.90
10249;DHT22;5169;50.560;9.714;2023-03-19T02:20:53;10.20;99.90
10249;DHT22;5169;50.560;9.714;2023-03-19T02:26:22;9.90;99.90
10249;DHT22;5169;50.560;9.714;2023-03-19T02:28:52;9.90;99.90
10249;DHT22;5169;50.560;9.714;2023-03-19T02:31:18;9.80;99.90
10249;DHT22;5169;50.560;9.714;2023-03-19T02:33:56;9.90;99.90
10249;DHT22;5169;50.560;9.714;2023-03-19T02:36:21;10.30;99.90
10249;DHT22;5169;50.560;9.714;2023-03-19T02:38:51;10.40;99.90
10249;DHT22;5169;50.560;9.714;2023-03-19T02:41:18;10.40;99.90
10249;DHT22;5169;50.560;9.714;2023-03-19T02:43:44;10.30;99.90
10249;DHT22;5169;50.560;9.714;2023-03-19T02:46:12;10.10;99.90
10249;DHT22;5169;50.560;9.714;2023-03-19T02:48:42;9.90;99.90
10249;DHT22;5169;50.560;9.714;2023-03-19T02:51:11;10.00;99.90
10249;DHT22;5169;50.560;9.714;2023-03-19T02:53:37;10.10;99.90
10249;DHT22;5169;50.560;9.714;2023-03-19T02:56:03;10.10;99.90
10249;DHT22;5169;50.560;9.714;2023-03-19T02:58:29;10.10;99.90
10249;DHT22;5169;50.560;9.714;2023-03-19T03:00:57;10.00;99.90
10249;DHT22;5169;50.560;9.714;2023-03-19T03:03:23;10.00;99.90
10249;DHT22;5169;50.560;9.714;2023-03-19T03:05:48;10.10;99.90
10249;DHT22;5169;50.560;9.714;2023-03-19T03:08:14;10.10;99.90
10249;DHT22;5169;50.560;9.714;2023-03-19T03:10:40;10.10;99.90
10249;DHT22;5169;50.560;9.714;2023-03-19T03:13:05;10.00;99.90
10249;DHT22;5169;50.560;9.714;2023-03-19T03:15:31;9.90;99.90
10249;DHT22;5169;50.560;9.714;2023-03-19T03:17:57;9.90;99.90
10249;DHT22;5169;50.560;9.714;2023-03-19T03:20:23;9.90;99.90
10249;DHT22;5169;50.560;9.714;2023-03-19T03:22:51;9.80;99.90
10249;DHT22;5169;50.560;9.714;2023-03-19T03:25:20;9.70;99.90
10249;DHT22;5169;50.560;9.714;2023-03-19T03:27:47;9.80;99.90
10249;DHT22;5169;50.560;9.714;2023-03-19T03:30:13;9.80;99.90
10249;DHT22;5169;50.560;9.714;2023-03-19T03:32:40;9.70;99.90
10249;DHT22;5169;50.560;9.714;2023-03-19T03:35:07;9.80;99.90
10249;DHT22;5169;50.560;9.714;2023-03-19T03:37:35;9.80;99.90
10249;DHT22;5169;50.560;9.714;2023-03-19T03:40:01;9.80;99.90
10249;DHT22;5169;50.560;9.714;2023-03-19T03:42:32;9.80;99.90
10249;DHT22;5169;50.560;9.714;2023-03-19T03:44:58;9.90;99.90
10249;DHT22;5169;50.560;9.714;2023-03-19T03:47:26;9.90;99.90
10249;DHT22;5169;50.560;9.714;2023-03-19T03:49:53;9.90;99.90
10249;DHT22;5169;50.560;9.714;2023-03-19T03:52:20;10.10;99.90
10249;DHT22;5169;50.560;9.714;2023-03-19T03:54:48;10.00;99.90
10249;DHT22;5169;50.560;9.714;2023-03-19T03:57:14;10.00;99.90
10249;DHT22;5169;50.560;9.714;2023-03-19T03:59:41;9.90;99.90
10249;DHT22;5169;50.560;9.714;2023-03-19T04:02:07;9.90;99.90
10249;DHT22;5169;50.560;9.714;2023-03-19T04:04:33;9.90;99.90
10249;DHT22;5169;50.560;9.714;2023-03-19T04:06:59;10.00;99.90
10249;DHT22;5169;50.560;9.714;2023-03-19T04:09:25;10.00;99.90
10249;DHT22;5169;50.560;9.714;2023-03-19T04:11:53;10.00;99.90
10249;DHT22;5169;50.560;9.714;2023-03-19T04:14:22;10.00;99.90
10249;DHT22;5169;50.560;9.714;2023-03-19T04:16:47;9.90;99.90
10249;DHT22;5169;50.560;9.714;2023-03-19T04:19:13;9.90;99.90
10249;DHT22;5169;50.560;9.714;2023-03-19T04:21:41;9.90;99.90
10249;DHT22;5169;50.560;9.714;2023-03-19T04:24:07;9.90;99.90
10249;DHT22;5169;50.560;9.714;2023-03-19T04:26:35;9.80;99.90
10249;DHT22;5169;50.560;9.714;2023-03-19T04:29:03;9.90;99.90
10249;DHT22;5169;50.560;9.714;2023-03-19T04:31:35;9.90;99.90
10249;DHT22;5169;50.560;9.714;2023-03-19T04:34:01;9.90;99.90
10249;DHT22;5169;50.560;9.714;2023-03-19T04:36:27;10.00;99.90
10249;DHT22;5169;50.560;9.714;2023-03-19T04:38:53;10.00;99.90
10249;DHT22;5169;50.560;9.714;2023-03-19T04:41:21;10.10;99.90
10249;DHT22;5169;50.560;9.714;2023-03-19T04:43:47;10.10;99.90
10249;DHT22;5169;50.560;9.714;2023-03-19T04:46:20;10.10;99.90
10249;DHT22;5169;50.560;9.714;2023-03-19T04:48:46;10.00;99.90
10249;DHT22;5169;50.560;9.714;2023-03-19T04:51:13;10.10;99.90
10249;DHT22;5169;50.560;9.714;2023-03-19T04:53:41;10.20;99.90
10249;DHT22;5169;50.560;9.714;2023-03-19T04:56:07;10.30;99.90
10249;DHT22;5169;50.560;9.714;2023-03-19T04:58:35;10.30;99.90
10249;DHT22;5169;50.560;9.714;2023-03-19T05:01:01;10.30;99.90
10249;DHT22;5169;50.560;9.714;2023-03-19T05:03:26;10.40;99.90
10249;DHT22;5169;50.560;9.714;2023-03-19T05:05:53;10.30;99.90
10249;DHT22;5169;50.560;9.714;2023-03-19T05:08:19;10.20;99.90
10249;DHT22;5169;50.560;9.714;2023-03-19T05:10:47;10.10;99.90
10249;DHT22;5169;50.560;9.714;2023-03-19T05:13:13;9.90;99.90
10249;DHT22;5169;50.560;9.714;2023-03-19T05:15:41;9.80;99.90
10249;DHT22;5169;50.560;9.714;2023-03-19T05:18:07;9.70;99.90
10249;DHT22;5169;50.560;9.714;2023-03-19T05:20:36;9.70;99.90
10249;DHT22;5169;50.560;9.714;2023-03-19T05:23:02;9.70;99.90
10249;DHT22;5169;50.560;9.714;2023-03-19T05:25:27;9.70;99.90
10249;DHT22;5169;50.560;9.714;2023-03-19T05:27:54;9.80;99.90
10249;DHT22;5169;50.560;9.714;2023-03-19T05:30:20;9.90;99.90
10249;DHT22;5169;50.560;9.714;2023-03-19T05:32:46;9.90;99.90
10249;DHT22;5169;50.560;9.714;2023-03-19T05:35:12;9.90;99.90
10249;DHT22;5169;50.560;9.714;2023-03-19T05:37:38;9.90;99.90
10249;DHT22;5169;50.560;9.714;2023-03-19T05:40:05;10.00;99.90
10249;DHT22;5169;50.560;9.714;2023-03-19T05:42:31;10.00;99.90
10249;DHT22;5169;50.560;9.714;2023-03-19T05:44:58;10.00;99.90
10249;DHT22;5169;50.560;9.714;2023-03-19T05:47:24;10.00;99.90
10249;DHT22;5169;50.560;9.714;2023-03-19T05:49:52;9.90;99.90
10249;DHT22;5169;50.560;9.714;2023-03-19T05:52:17;9.90;99.90
10249;DHT22;5169;50.560;9.714;2023-03-19T05:54:43;9.90;99.90
10249;DHT22;5169;50.560;9.714;2023-03-19T05:57:09;9.90;99.90
10249;DHT22;5169;50.560;9.714;2023-03-19T05:59:35;9.80;99.90
10249;DHT22;5169;50.560;9.714;2023-03-19T06:02:00;9.80;99.90
10249;DHT22;5169;50.560;9.714;2023-03-19T06:04:26;10.00;99.90
10249;DHT22;5169;50.560;9.714;2023-03-19T06:06:52;10.20;99.90
10249;DHT22;5169;50.560;9.714;2023-03-19T06:09:17;10.30;99.90
10249;DHT22;5169;50.560;9.714;2023-03-19T06:11:43;10.20;99.90
10249;DHT22;5169;50.560;9.714;2023-03-19T06:14:11;10.20;99.90
10249;DHT22;5169;50.560;9.714;2023-03-19T06:16:36;10.30;99.90
10249;DHT22;5169;50.560;9.714;2023-03-19T06:19:02;10.30;99.90
10249;DHT22;5169;50.560;9.714;2023-03-19T06:21:28;10.30;99.90
10249;DHT22;5169;50.560;9.714;2023-03-19T06:23:55;10.40;99.90
10249;DHT22;5169;50.560;9.714;2023-03-19T06:26:26;10.30;99.90
10249;DHT22;5169;50.560;9.714;2023-03-19T06:28:52;10.30;99.90
10249;DHT22;5169;50.560;9.714;2023-03-19T06:31:18;10.40;99.90
10249;DHT22;5169;50.560;9.714;2023-03-19T06:33:44;10.40;99.90
10249;DHT22;5169;50.560;9.714;2023-03-19T06:36:10;10.50;99.90
10249;DHT22;5169;50.560;9.714;2023-03-19T06:38:38;10.40;99.90
10249;DHT22;5169;50.560;9.714;2023-03-19T06:41:04;10.40;99.90
10249;DHT22;5169;50.560;9.714;2023-03-19T06:43:29;10.50;99.90
10249;DHT22;5169;50.560;9.714;2023-03-19T06:45:56;10.40;99.90
10249;DHT22;5169;50.560;9.714;2023-03-19T06:48:21;10.50;99.90
10249;DHT22;5169;50.560;9.714;2023-03-19T06:50:47;10.50;99.90
10249;DHT22;5169;50.560;9.714;2023-03-19T06:53:13;10.50;99.90
10249;DHT22;5169;50.560;9.714;2023-03-19T06:55:39;10.50;99.90
10249;DHT22;5169;50.560;9.714;2023-03-19T06:58:05;10.50;99.90
10249;DHT22;5169;50.560;9.714;2023-03-19T07:00:34;10.50;99.90
10249;DHT22;5169;50.560;9.714;2023-03-19T07:02:59;10.60;99.90
10249;DHT22;5169;50.560;9.714;2023-03-19T07:05:25;10.80;99.90
10249;DHT22;5169;50.560;9.714;2023-03-19T07:07:51;10.70;99.90
10249;DHT22;5169;50.560;9.714;2023-03-19T07:10:20;10.80;99.90
10249;DHT22;5169;50.560;9.714;2023-03-19T07:12:46;10.80;99.90
10249;DHT22;5169;50.560;9.714;2023-03-19T07:15:14;10.80;99.90
10249;DHT22;5169;50.560;9.714;2023-03-19T07:17:47;11.00;99.90
10249;DHT22;5169;50.560;9.714;2023-03-19T07:20:16;11.00;99.90
10249;DHT22;5169;50.560;9.714;2023-03-19T07:22:42;10.90;99.90
10249;DHT22;5169;50.560;9.714;2023-03-19T07:25:08;11.10;99.90
10249;DHT22;5169;50.560;9.714;2023-03-19T07:27:33;11.20;99.90
10249;DHT22;5169;50.560;9.714;2023-03-19T07:29:59;11.20;99.90
10249;DHT22;5169;50.560;9.714;2023-03-19T07:32:25;11.30;99.90
10249;DHT22;5169;50.560;9.714;2023-03-19T07:34:50;11.30;99.90
10249;DHT22;5169;50.560;9.714;2023-03-19T07:37:16;11.30;99.90
10249;DHT22;5169;50.560;9.714;2023-03-19T07:39:44;11.40;99.90
10249;DHT22;5169;50.560;9.714;2023-03-19T07:42:15;11.40;99.90
10249;DHT22;5169;50.560;9.714;2023-03-19T07:44:45;11.40;99.90
10249;DHT22;5169;50.560;9.714;2023-03-19T07:47:11;11.40;99.90
10249;DHT22;5169;50.560;9.714;2023-03-19T07:49:37;11.40;99.90
10249;DHT22;5169;50.560;9.714;2023-03-19T07:52:02;11.40;99.90
10249;DHT22;5169;50.560;9.714;2023-03-19T07:54:28;11.40;99.90
10249;DHT22;5169;50.560;9.714;2023-03-19T07:56:56;11.30;99.90
10249;DHT22;5169;50.560;9.714;2023-03-19T07:59:24;11.40;99.90
10249;DHT22;5169;50.560;9.714;2023-03-19T08:01:50;11.40;99.90
10249;DHT22;5169;50.560;9.714;2023-03-19T08:04:20;11.50;99.90
10249;DHT22;5169;50.560;9.714;2023-03-19T08:06:45;11.50;99.90
10249;DHT22;5169;50.560;9.714;2023-03-19T08:09:12;11.50;99.90
10249;DHT22;5169;50.560;9.714;2023-03-19T08:11:38;11.50;99.90
10249;DHT22;5169;50.560;9.714;2023-03-19T08:14:06;11.40;99.90
10249;DHT22;5169;50.560;9.714;2023-03-19T08:16:32;11.60;99.90
10249;DHT22;5169;50.560;9.714;2023-03-19T08:18:57;11.70;99.90
10249;DHT22;5169;50.560;9.714;2023-03-19T08:21:25;11.90;99.90
10249;DHT22;5169;50.560;9.714;2023-03-19T08:23:51;11.90;99.90
10249;DHT22;5169;50.560;9.714;2023-03-19T08:26:17;12.00;99.90
10249;DHT22;5169;50.560;9.714;2023-03-19T08:28:45;12.20;99.90
10249;DHT22;5169;50.560;9.714;2023-03-19T08:31:12;12.30;99.90
10249;DHT22;5169;50.560;9.714;2023-03-19T08:33:38;12.40;99.90
10249;DHT22;5169;50.560;9.714;2023-03-19T08:36:15;12.70;99.90
10249;DHT22;5169;50.560;9.714;2023-03-19T08:38:42;12.90;99.90
10249;DHT22;5169;50.560;9.714;2023-03-19T08:41:11;13.10;99.90
10249;DHT22;5169;50.560;9.714;2023-03-19T08:43:36;13.20;99.90
10249;DHT22;5169;50.560;9.714;2023-03-19T08:46:07;13.30;99.90
10249;DHT22;5169;50.560;9.714;2023-03-19T08:48:35;13.30;99.90
10249;DHT22;5169;50.560;9.714;2023-03-19T08:51:05;13.40;99.90
10249;DHT22;5169;50.560;9.714;2023-03-19T08:53:32;13.30;99.90
10249;DHT22;5169;50.560;9.714;2023-03-19T08:56:02;13.50;99.90
10249;DHT22;5169;50.560;9.714;2023-03-19T08:58:28;13.50;99.90
10249;DHT22;5169;50.560;9.714;2023-03-19T09:01:05;13.70;99.90
10249;DHT22;5169;50.560;9.714;2023-03-19T09:03:31;13.70;99.90
10249;DHT22;5169;50.560;9.714;2023-03-19T09:06:07;13.60;99.90
10249;DHT22;5169;50.560;9.714;2023-03-19T09:08:34;13.70;99.90
10249;DHT22;5169;50.560;9.714;2023-03-19T09:11:03;13.80;99.90
10249;DHT22;5169;50.560;9.714;2023-03-19T09:13:29;13.60;99.90
10249;DHT22;5169;50.560;9.714;2023-03-19T09:15:55;13.50;99.90
10249;DHT22;5169;50.560;9.714;2023-03-19T09:18:25;13.30;99.90
10249;DHT22;5169;50.560;9.714;2023-03-19T09:20:51;13.30;99.90
10249;DHT22;5169;50.560;9.714;2023-03-19T09:23:18;13.20;99.90
10249;DHT22;5169;50.560;9.714;2023-03-19T09:25:44;13.20;99.90
10249;DHT22;5169;50.560;9.714;2023-03-19T09:28:10;13.50;99.90
10249;DHT22;5169;50.560;9.714;2023-03-19T09:30:38;13.70;99.90
10249;DHT22;5169;50.560;9.714;2023-03-19T09:33:05;13.80;99.90
10249;DHT22;5169;50.560;9.714;2023-03-19T09:35:33;14.10;99.90
10249;DHT22;5169;50.560;9.714;2023-03-19T09:37:59;14.30;99.90
10249;DHT22;5169;50.560;9.714;2023-03-19T09:40:29;14.30;99.90
10249;DHT22;5169;50.560;9.714;2023-03-19T09:45:56;14.40;99.90
10249;DHT22;5169;50.560;9.714;2023-03-19T09:48:53;14.40;99.90
10249;DHT22;5169;50.560;9.714;2023-03-19T09:51:38;14.80;99.90
10249;DHT22;5169;50.560;9.714;2023-03-19T09:56:44;15.20;99.90
10249;DHT22;5169;50.560;9.714;2023-03-19T09:59:12;15.60;99.90
10249;DHT22;5169;50.560;9.714;2023-03-19T10:01:46;15.70;99.90
10249;DHT22;5169;50.560;9.714;2023-03-19T10:04:18;15.70;99.90
10249;DHT22;5169;50.560;9.714;2023-03-19T10:06:54;15.70;99.90
10249;DHT22;5169;50.560;9.714;2023-03-19T10:10:01;16.10;99.90
10249;DHT22;5169;50.560;9.714;2023-03-19T10:12:48;16.50;99.90
10249;DHT22;5169;50.560;9.714;2023-03-19T10:15:22;16.80;99.90
10249;DHT22;5169;50.560;9.714;2023-03-19T10:18:01;16.80;99.90
10249;DHT22;5169;50.560;9.714;2023-03-19T10:20:47;16.90;99.80
10249;DHT22;5169;50.560;9.714;2023-03-19T10:23:46;17.20;99.50
10249;DHT22;5169;50.560;9.714;2023-03-19T10:26:17;17.50;98.90
10249;DHT22;5169;50.560;9.714;2023-03-19T10:29:14;17.80;98.00
10249;DHT22;5169;50.560;9.714;2023-03-19T10:31:59;17.60;97.90
10249;DHT22;5169;50.560;9.714;2023-03-19T10:34:30;17.60;97.90
10249;DHT22;5169;50.560;9.714;2023-03-19T10:39:42;18.30;97.10
10249;DHT22;5169;50.560;9.714;2023-03-19T10:48:01;19.10;95.30
10249;DHT22;5169;50.560;9.714;2023-03-19T10:50:34;19.10;94.80
10249;DHT22;5169;50.560;9.714;2023-03-19T10:53:50;18.40;95.40
10249;DHT22;5169;50.560;9.714;2023-03-19T10:56:04;18.20;95.90
10249;DHT22;5169;50.560;9.714;2023-03-19T10:58:34;17.90;96.80
10249;DHT22;5169;50.560;9.714;2023-03-19T11:03:58;17.70;96.80
10249;DHT22;5169;50.560;9.714;2023-03-19T11:06:33;18.00;96.60
10249;DHT22;5169;50.560;9.714;2023-03-19T11:14:06;20.20;92.40
10249;DHT22;5169;50.560;9.714;2023-03-19T11:17:01;19.70;92.60
10249;DHT22;5169;50.560;9.714;2023-03-19T11:19:31;19.70;93.30
10249;DHT22;5169;50.560;9.714;2023-03-19T11:24:31;22.90;87.30
10249;DHT22;5169;50.560;9.714;2023-03-19T11:26:58;24.70;81.40
10249;DHT22;5169;50.560;9.714;2023-03-19T11:29:26;25.30;75.30
10249;DHT22;5169;50.560;9.714;2023-03-19T11:34:51;25.10;72.00
10249;DHT22;5169;50.560;9.714;2023-03-19T11:37:48;25.00;71.30
10249;DHT22;5169;50.560;9.714;2023-03-19T11:46:34;23.00;75.40
10249;DHT22;5169;50.560;9.714;2023-03-19T11:49:10;23.30;74.70
10249;DHT22;5169;50.560;9.714;2023-03-19T12:08:06;25.20;69.60
10249;DHT22;5169;50.560;9.714;2023-03-19T12:24:16;21.40;72.40
10249;DHT22;5169;50.560;9.714;2023-03-19T12:29:54;18.80;84.00
10249;DHT22;5169;50.560;9.714;2023-03-19T12:35:16;19.10;85.30
10249;DHT22;5169;50.560;9.714;2023-03-19T12:38:04;19.00;86.90
10249;DHT22;5169;50.560;9.714;2023-03-19T12:40:46;18.80;85.70
10249;DHT22;5169;50.560;9.714;2023-03-19T12:43:33;18.70;87.90
10249;DHT22;5169;50.560;9.714;2023-03-19T12:48:46;18.10;89.10
10249;DHT22;5169;50.560;9.714;2023-03-19T12:51:17;17.80;89.30
10249;DHT22;5169;50.560;9.714;2023-03-19T12:57:20;17.40;91.40
10249;DHT22;5169;50.560;9.714;2023-03-19T13:01:48;17.30;92.10
10249;DHT22;5169;50.560;9.714;2023-03-19T13:04:17;17.10;92.60
10249;DHT22;5169;50.560;9.714;2023-03-19T13:07:17;17.10;92.60
10249;DHT22;5169;50.560;9.714;2023-03-19T13:09:52;17.10;91.20
10249;DHT22;5169;50.560;9.714;2023-03-19T13:12:31;17.10;91.80
10249;DHT22;5169;50.560;9.714;2023-03-19T13:15:11;17.00;92.40
10249;DHT22;5169;50.560;9.714;2023-03-19T13:23:14;17.40;93.90
10249;DHT22;5169;50.560;9.714;2023-03-19T13:25:46;18.00;93.90
10249;DHT22;5169;50.560;9.714;2023-03-19T13:28:31;18.90;93.30
10249;DHT22;5169;50.560;9.714;2023-03-19T13:31:17;20.20;90.70
10249;DHT22;5169;50.560;9.714;2023-03-19T13:36:43;20.00;90.00
10249;DHT22;5169;50.560;9.714;2023-03-19T13:39:39;18.90;90.40
10249;DHT22;5169;50.560;9.714;2023-03-19T13:42:36;18.80;91.20
10249;DHT22;5169;50.560;9.714;2023-03-19T13:55:31;17.30;90.90
10249;DHT22;5169;50.560;9.714;2023-03-19T13:58:01;17.20;91.30
10249;DHT22;5169;50.560;9.714;2023-03-19T14:03:25;16.50;91.90
10249;DHT22;5169;50.560;9.714;2023-03-19T14:05:54;16.50;92.50
10249;DHT22;5169;50.560;9.714;2023-03-19T14:08:32;16.30;92.50
10249;DHT22;5169;50.560;9.714;2023-03-19T14:10:59;16.20;93.60
10249;DHT22;5169;50.560;9.714;2023-03-19T14:13:42;16.10;96.30
10249;DHT22;5169;50.560;9.714;2023-03-19T14:16:23;16.10;98.40
10249;DHT22;5169;50.560;9.714;2023-03-19T14:18:56;16.10;98.80
10249;DHT22;5169;50.560;9.714;2023-03-19T14:22:00;16.30;98.90
10249;DHT22;5169;50.560;9.714;2023-03-19T14:24:33;16.50;98.80
10249;DHT22;5169;50.560;9.714;2023-03-19T14:27:16;16.60;99.10
10249;DHT22;5169;50.560;9.714;2023-03-19T14:29:43;16.70;99.20
10249;DHT22;5169;50.560;9.714;2023-03-19T14:32:15;16.60;99.30
10249;DHT22;5169;50.560;9.714;2023-03-19T14:34:43;16.50;99.00
10249;DHT22;5169;50.560;9.714;2023-03-19T14:37:20;16.40;99.00
10249;DHT22;5169;50.560;9.714;2023-03-19T14:39:56;16.20;99.40
10249;DHT22;5169;50.560;9.714;2023-03-19T14:42:27;16.10;99.30
10249;DHT22;5169;50.560;9.714;2023-03-19T14:56:15;15.90;99.90
10249;DHT22;5169;50.560;9.714;2023-03-19T14:58:55;15.80;99.90
10249;DHT22;5169;50.560;9.714;2023-03-19T15:01:25;15.80;99.80
10249;DHT22;5169;50.560;9.714;2023-03-19T15:04:03;15.70;99.90
10249;DHT22;5169;50.560;9.714;2023-03-19T15:06:56;15.80;99.90
10249;DHT22;5169;50.560;9.714;2023-03-19T15:09:29;15.90;99.50
10249;DHT22;5169;50.560;9.714;2023-03-19T15:14:56;16.20;98.50
10249;DHT22;5169;50.560;9.714;2023-03-19T15:17:29;16.30;98.80
10249;DHT22;5169;50.560;9.714;2023-03-19T15:19:58;16.30;98.80
10249;DHT22;5169;50.560;9.714;2023-03-19T15:22:29;16.40;98.20
10249;DHT22;5169;50.560;9.714;2023-03-19T15:25:10;16.50;97.90
10249;DHT22;5169;50.560;9.714;2023-03-19T15:27:39;16.50;97.50
10249;DHT22;5169;50.560;9.714;2023-03-19T15:30:20;16.50;95.90
10249;DHT22;5169;50.560;9.714;2023-03-19T15:32:46;16.50;95.50
10249;DHT22;5169;50.560;9.714;2023-03-19T15:35:12;16.50;95.90
10249;DHT22;5169;50.560;9.714;2023-03-19T15:37:42;16.50;96.50
10249;DHT22;5169;50.560;9.714;2023-03-19T15:40:14;16.40;96.60
10249;DHT22;5169;50.560;9.714;2023-03-19T15:42:42;16.20;96.80
10249;DHT22;5169;50.560;9.714;2023-03-19T15:45:11;16.10;97.10
10249;DHT22;5169;50.560;9.714;2023-03-19T15:47:44;16.00;97.10
10249;DHT22;5169;50.560;9.714;2023-03-19T15:50:20;15.90;97.50
10249;DHT22;5169;50.560;9.714;2023-03-19T15:52:57;15.80;97.80
10249;DHT22;5169;50.560;9.714;2023-03-19T15:55:25;15.70;98.20
10249;DHT22;5169;50.560;9.714;2023-03-19T15:57:53;15.60;98.70
10249;DHT22;5169;50.560;9.714;2023-03-19T16:00:25;15.40;98.70
10249;DHT22;5169;50.560;9.714;2023-03-19T16:02:51;15.20;99.00
10249;DHT22;5169;50.560;9.714;2023-03-19T16:05:29;15.00;99.60
10249;DHT22;5169;50.560;9.714;2023-03-19T16:10:42;14.70;99.90
10249;DHT22;5169;50.560;9.714;2023-03-19T16:16:01;14.40;99.90
10249;DHT22;5169;50.560;9.714;2023-03-19T16:18:29;14.30;99.90
10249;DHT22;5169;50.560;9.714;2023-03-19T16:21:11;14.20;99.90
10249;DHT22;5169;50.560;9.714;2023-03-19T16:23:44;14.20;99.90
10249;DHT22;5169;50.560;9.714;2023-03-19T16:26:22;14.10;99.90
10249;DHT22;5169;50.560;9.714;2023-03-19T16:31:46;13.90;99.90
10249;DHT22;5169;50.560;9.714;2023-03-19T16:36:55;13.80;99.90
10249;DHT22;5169;50.560;9.714;2023-03-19T16:39:31;13.70;99.90
10249;DHT22;5169;50.560;9.714;2023-03-19T16:44:33;13.60;99.90
10249;DHT22;5169;50.560;9.714;2023-03-19T16:46:59;13.50;99.90
10249;DHT22;5169;50.560;9.714;2023-03-19T16:49:27;13.50;99.90
10249;DHT22;5169;50.560;9.714;2023-03-19T16:51:55;13.40;99.90
10249;DHT22;5169;50.560;9.714;2023-03-19T16:54:22;13.40;99.90
10249;DHT22;5169;50.560;9.714;2023-03-19T16:56:52;13.30;99.90
10249;DHT22;5169;50.560;9.714;2023-03-19T16:59:26;13.30;99.90
10249;DHT22;5169;50.560;9.714;2023-03-19T17:01:53;13.20;99.90
10249;DHT22;5169;50.560;9.714;2023-03-19T17:04:19;13.10;99.90
10249;DHT22;5169;50.560;9.714;2023-03-19T17:06:44;13.10;99.90
10249;DHT22;5169;50.560;9.714;2023-03-19T17:09:10;13.00;99.90
10249;DHT22;5169;50.560;9.714;2023-03-19T17:11:39;12.90;99.90
10249;DHT22;5169;50.560;9.714;2023-03-19T17:14:11;12.90;99.90
10249;DHT22;5169;50.560;9.714;2023-03-19T17:16:40;12.90;99.90
10249;DHT22;5169;50.560;9.714;2023-03-19T17:19:17;12.80;99.90
10249;DHT22;5169;50.560;9.714;2023-03-19T17:21:50;12.80;99.90
10249;DHT22;5169;50.560;9.714;2023-03-19T17:26:49;12.80;99.90
10249;DHT22;5169;50.560;9.714;2023-03-19T17:29:15;12.80;99.90
10249;DHT22;5169;50.560;9.714;2023-03-19T17:31:44;12.70;99.90
10249;DHT22;5169;50.560;9.714;2023-03-19T17:36:36;12.60;99.90
10249;DHT22;5169;50.560;9.714;2023-03-19T17:39:03;12.60;99.90
10249;DHT22;5169;50.560;9.714;2023-03-19T17:41:30;12.50;99.90
10249;DHT22;5169;50.560;9.714;2023-03-19T17:43:57;12.50;99.90
10249;DHT22;5169;50.560;9.714;2023-03-19T17:46:25;12.40;99.90
10249;DHT22;5169;50.560;9.714;2023-03-19T17:48:52;12.50;99.90
10249;DHT22;5169;50.560;9.714;2023-03-19T17:51:19;12.40;99.90
10249;DHT22;5169;50.560;9.714;2023-03-19T17:53:49;12.50;99.90
10249;DHT22;5169;50.560;9.714;2023-03-19T17:56:18;12.50;99.90
10249;DHT22;5169;50.560;9.714;2023-03-19T17:58:44;12.50;99.90
10249;DHT22;5169;50.560;9.714;2023-03-19T18:01:20;12.60;99.90
10249;DHT22;5169;50.560;9.714;2023-03-19T18:03:48;12.50;99.90
10249;DHT22;5169;50.560;9.714;2023-03-19T18:06:22;12.60;99.90
10249;DHT22;5169;50.560;9.714;2023-03-19T18:08:48;12.70;99.90
10249;DHT22;5169;50.560;9.714;2023-03-19T18:11:19;12.70;99.90
10249;DHT22;5169;50.560;9.714;2023-03-19T18:13:44;12.60;99.90
10249;DHT22;5169;50.560;9.714;2023-03-19T18:18:43;12.50;99.90
10249;DHT22;5169;50.560;9.714;2023-03-19T18:21:13;12.40;99.90